sensor_id;sensor_type;location;lat;lon;timestamp;pressure;altitude;pressure_sealevel;temperature;humidity
65758;BME280;52495;52.208;5.158;2023-03-23T00:00:53;100037.16;;;11.72;100.00
65758;BME280;52495;52.208;5.158;2023-03-23T00:03:20;100041.41;;;11.75;100.00
65758;BME280;52495;52.208;5.158;2023-03-23T00:05:48;100041.41;;;11.75;99.87
65758;BME280;52495;52.208;5.158;2023-03-23T00:08:19;100045.72;;;11.74;99.42
65758;BME280;52495;52.208;5.158;2023-03-23T00:10:50;100046.56;;;11.75;99.43
65758;BME280;52495;52.208;5.158;2023-03-23T00:13:18;100047.47;;;11.74;99.33
65758;BME280;52495;52.208;5.158;2023-03-23T00:15:46;100050.00;;;11.75;99.20
65758;BME280;52495;52.208;5.158;2023-03-23T00:18:14;100046.13;;;11.87;98.37
65758;BME280;52495;52.208;5.158;2023-03-23T00:20:47;100042.06;;;11.80;98.16
65758;BME280;52495;52.208;5.158;2023-03-23T00:23:14;100032.50;;;11.82;98.30
65758;BME280;52495;52.208;5.158;2023-03-23T00:25:46;100032.69;;;11.77;97.95
65758;BME280;52495;52.208;5.158;2023-03-23T00:28:14;100037.78;;;11.79;98.08
65758;BME280;52495;52.208;5.158;2023-03-23T00:30:43;100042.13;;;11.78;97.56
65758;BME280;52495;52.208;5.158;2023-03-23T00:33:12;100036.97;;;11.78;97.44
65758;BME280;52495;52.208;5.158;2023-03-23T00:35:42;100023.97;;;11.80;97.42
65758;BME280;52495;52.208;5.158;2023-03-23T00:38:09;100021.38;;;11.80;97.20
65758;BME280;52495;52.208;5.158;2023-03-23T00:40:36;100024.84;;;11.79;97.28
65758;BME280;52495;52.208;5.158;2023-03-23T00:43:04;100018.69;;;11.83;96.58
65758;BME280;52495;52.208;5.158;2023-03-23T00:45:31;100018.78;;;11.80;97.08
65758;BME280;52495;52.208;5.158;2023-03-23T00:48:00;100011.88;;;11.80;97.01
65758;BME280;52495;52.208;5.158;2023-03-23T00:50:30;100011.78;;;11.83;96.69
65758;BME280;52495;52.208;5.158;2023-03-23T00:52:57;100011.59;;;11.88;96.78
65758;BME280;52495;52.208;5.158;2023-03-23T00:55:24;100005.53;;;11.89;96.55
65758;BME280;52495;52.208;5.158;2023-03-23T00:57:51;100000.41;;;11.88;96.19
65758;BME280;52495;52.208;5.158;2023-03-23T01:00:21;100002.94;;;11.89;95.95
65758;BME280;52495;52.208;5.158;2023-03-23T01:02:48;99994.22;;;11.92;96.18
65758;BME280;52495;52.208;5.158;2023-03-23T01:05:17;99997.72;;;11.91;95.63
65758;BME280;52495;52.208;5.158;2023-03-23T01:07:44;99995.75;;;11.97;95.66
65758;BME280;52495;52.208;5.158;2023-03-23T01:10:12;100003.69;;;11.93;95.28
65758;BME280;52495;52.208;5.158;2023-03-23T01:12:43;100001.06;;;11.94;95.30
65758;BME280;52495;52.208;5.158;2023-03-23T01:15:14;100008.03;;;11.92;94.92
65758;BME280;52495;52.208;5.158;2023-03-23T01:17:43;100007.16;;;11.92;95.08
65758;BME280;52495;52.208;5.158;2023-03-23T01:20:11;100003.63;;;11.94;94.83
65758;BME280;52495;52.208;5.158;2023-03-23T01:22:39;99999.38;;;11.93;94.55
65758;BME280;52495;52.208;5.158;2023-03-23T01:25:07;99978.66;;;11.93;94.55
65758;BME280;52495;52.208;5.158;2023-03-23T01:27:34;99976.00;;;11.95;94.93
65758;BME280;52495;52.208;5.158;2023-03-23T01:30:03;99967.47;;;11.93;94.60
65758;BME280;52495;52.208;5.158;2023-03-23T01:32:30;99979.47;;;11.95;94.38
65758;BME280;52495;52.208;5.158;2023-03-23T01:34:58;99962.25;;;11.94;94.33
65758;BME280;52495;52.208;5.158;2023-03-23T01:37:25;99964.84;;;11.94;94.08
65758;BME280;52495;52.208;5.158;2023-03-23T01:39:55;99957.13;;;11.93;93.87
65758;BME280;52495;52.208;5.158;2023-03-23T01:42:23;99964.16;;;11.89;93.72
65758;BME280;52495;52.208;5.158;2023-03-23T01:47:54;99959.59;;;11.96;93.54
65758;BME280;52495;52.208;5.158;2023-03-23T01:50:25;99967.53;;;11.91;93.30
65758;BME280;52495;52.208;5.158;2023-03-23T01:52:55;99965.78;;;11.92;93.33
65758;BME280;52495;52.208;5.158;2023-03-23T01:55:24;99955.44;;;11.92;93.39
65758;BME280;52495;52.208;5.158;2023-03-23T01:57:54;99949.44;;;11.91;93.29
65758;BME280;52495;52.208;5.158;2023-03-23T02:00:24;99943.28;;;11.94;93.18
65758;BME280;52495;52.208;5.158;2023-03-23T02:02:54;99944.88;;;11.98;92.89
65758;BME280;52495;52.208;5.158;2023-03-23T02:05:29;99946.72;;;11.94;93.05
65758;BME280;52495;52.208;5.158;2023-03-23T02:08:02;99941.59;;;11.93;93.20
65758;BME280;52495;52.208;5.158;2023-03-23T02:10:33;99933.94;;;11.90;93.40
65758;BME280;52495;52.208;5.158;2023-03-23T02:13:02;99937.13;;;11.96;93.29
65758;BME280;52495;52.208;5.158;2023-03-23T02:15:39;99936.50;;;11.91;93.25
65758;BME280;52495;52.208;5.158;2023-03-23T02:18:18;99939.06;;;11.91;93.20
65758;BME280;52495;52.208;5.158;2023-03-23T02:24:10;99952.00;;;11.91;93.32
65758;BME280;52495;52.208;5.158;2023-03-23T02:26:50;99940.88;;;11.89;93.46
65758;BME280;52495;52.208;5.158;2023-03-23T02:32:38;99945.16;;;11.90;93.59
65758;BME280;52495;52.208;5.158;2023-03-23T02:35:12;99945.94;;;11.92;93.37
65758;BME280;52495;52.208;5.158;2023-03-23T02:37:47;99945.84;;;11.95;93.15
65758;BME280;52495;52.208;5.158;2023-03-23T02:40:19;99943.34;;;11.92;93.40
65758;BME280;52495;52.208;5.158;2023-03-23T02:42:49;99944.97;;;11.95;93.43
65758;BME280;52495;52.208;5.158;2023-03-23T02:45:20;99941.56;;;11.94;93.55
65758;BME280;52495;52.208;5.158;2023-03-23T02:47:50;99942.47;;;11.93;93.34
65758;BME280;52495;52.208;5.158;2023-03-23T02:50:22;99953.59;;;11.95;93.47
65758;BME280;52495;52.208;5.158;2023-03-23T02:52:50;99951.00;;;11.95;93.62
65758;BME280;52495;52.208;5.158;2023-03-23T02:55:19;99947.56;;;11.95;93.55
65758;BME280;52495;52.208;5.158;2023-03-23T02:57:51;99931.06;;;11.97;93.26
65758;BME280;52495;52.208;5.158;2023-03-23T03:00:19;99932.91;;;11.95;93.11
65758;BME280;52495;52.208;5.158;2023-03-23T03:02:47;99936.38;;;11.94;93.08
65758;BME280;52495;52.208;5.158;2023-03-23T03:05:26;99942.25;;;11.99;92.94
65758;BME280;52495;52.208;5.158;2023-03-23T03:08:07;99937.09;;;11.98;92.64
65758;BME280;52495;52.208;5.158;2023-03-23T03:10:42;99936.94;;;12.03;92.24
65758;BME280;52495;52.208;5.158;2023-03-23T03:13:20;99932.75;;;12.00;92.14
65758;BME280;52495;52.208;5.158;2023-03-23T03:15:54;99934.44;;;12.01;91.99
65758;BME280;52495;52.208;5.158;2023-03-23T03:18:25;99929.25;;;12.01;91.86
65758;BME280;52495;52.208;5.158;2023-03-23T03:20:57;99916.25;;;12.03;91.63
65758;BME280;52495;52.208;5.158;2023-03-23T03:23:27;99916.16;;;12.06;91.41
65758;BME280;52495;52.208;5.158;2023-03-23T03:25:59;99922.63;;;12.16;90.55
65758;BME280;52495;52.208;5.158;2023-03-23T03:28:39;99918.63;;;12.09;90.76
65758;BME280;52495;52.208;5.158;2023-03-23T03:31:07;99910.84;;;12.09;90.83
65758;BME280;52495;52.208;5.158;2023-03-23T03:33:34;99917.03;;;12.05;90.82
65758;BME280;52495;52.208;5.158;2023-03-23T03:36:04;99924.81;;;12.05;90.83
65758;BME280;52495;52.208;5.158;2023-03-23T03:38:41;99919.56;;;12.06;90.86
65758;BME280;52495;52.208;5.158;2023-03-23T03:41:09;99911.75;;;12.08;90.58
65758;BME280;52495;52.208;5.158;2023-03-23T03:43:36;99899.75;;;12.05;90.90
65758;BME280;52495;52.208;5.158;2023-03-23T03:46:03;99903.81;;;12.12;90.72
65758;BME280;52495;52.208;5.158;2023-03-23T03:48:31;99924.59;;;12.11;90.75
65758;BME280;52495;52.208;5.158;2023-03-23T03:50:58;99929.00;;;12.07;92.49
65758;BME280;52495;52.208;5.158;2023-03-23T03:53:29;99938.72;;;12.02;94.39
65758;BME280;52495;52.208;5.158;2023-03-23T03:55:56;99932.81;;;11.97;96.00
65758;BME280;52495;52.208;5.158;2023-03-23T03:58:26;99915.00;;;11.89;97.30
65758;BME280;52495;52.208;5.158;2023-03-23T04:00:59;99924.56;;;11.87;98.26
65758;BME280;52495;52.208;5.158;2023-03-23T04:03:30;99933.41;;;11.81;98.04
65758;BME280;52495;52.208;5.158;2023-03-23T04:06:04;99941.44;;;11.74;99.27
65758;BME280;52495;52.208;5.158;2023-03-23T04:08:35;99947.72;;;11.66;100.00
65758;BME280;52495;52.208;5.158;2023-03-23T04:11:04;99938.53;;;11.59;100.00
65758;BME280;52495;52.208;5.158;2023-03-23T04:13:32;99946.31;;;11.58;100.00
65758;BME280;52495;52.208;5.158;2023-03-23T04:16:20;99945.78;;;11.48;100.00
65758;BME280;52495;52.208;5.158;2023-03-23T04:18:48;99945.34;;;11.36;100.00
65758;BME280;52495;52.208;5.158;2023-03-23T04:21:17;99946.34;;;11.32;100.00
65758;BME280;52495;52.208;5.158;2023-03-23T04:23:48;99953.72;;;11.18;100.00
65758;BME280;52495;52.208;5.158;2023-03-23T04:26:15;99935.00;;;11.11;100.00
65758;BME280;52495;52.208;5.158;2023-03-23T04:28:46;99954.66;;;10.90;100.00
65758;BME280;52495;52.208;5.158;2023-03-23T04:31:41;99951.13;;;10.92;100.00
65758;BME280;52495;52.208;5.158;2023-03-23T04:34:32;99951.75;;;10.99;100.00
65758;BME280;52495;52.208;5.158;2023-03-23T04:37:00;99950.81;;;11.02;100.00
65758;BME280;52495;52.208;5.158;2023-03-23T04:39:31;99940.38;;;11.05;100.00
65758;BME280;52495;52.208;5.158;2023-03-23T04:42:01;99936.81;;;11.09;100.00
65758;BME280;52495;52.208;5.158;2023-03-23T04:44:57;99949.66;;;11.11;100.00
65758;BME280;52495;52.208;5.158;2023-03-23T04:47:32;99954.53;;;11.20;100.00
65758;BME280;52495;52.208;5.158;2023-03-23T04:50:01;99958.78;;;11.21;100.00
65758;BME280;52495;52.208;5.158;2023-03-23T04:52:34;99976.16;;;11.17;100.00
65758;BME280;52495;52.208;5.158;2023-03-23T04:55:07;99987.22;;;11.21;100.00
65758;BME280;52495;52.208;5.158;2023-03-23T04:57:35;99985.25;;;11.28;100.00
65758;BME280;52495;52.208;5.158;2023-03-23T05:00:37;99988.75;;;11.27;100.00
65758;BME280;52495;52.208;5.158;2023-03-23T05:03:04;99988.47;;;11.34;100.00
65758;BME280;52495;52.208;5.158;2023-03-23T05:05:34;100001.50;;;11.31;100.00
65758;BME280;52495;52.208;5.158;2023-03-23T05:08:05;99986.97;;;11.29;100.00
65758;BME280;52495;52.208;5.158;2023-03-23T05:10:37;99990.28;;;11.32;100.00
65758;BME280;52495;52.208;5.158;2023-03-23T05:13:08;99991.16;;;11.31;100.00
65758;BME280;52495;52.208;5.158;2023-03-23T05:15:35;99993.75;;;11.31;100.00
65758;BME280;52495;52.208;5.158;2023-03-23T05:18:04;99995.44;;;11.32;100.00
65758;BME280;52495;52.208;5.158;2023-03-23T05:20:32;99999.09;;;11.27;100.00
65758;BME280;52495;52.208;5.158;2023-03-23T05:23:06;100005.94;;;11.28;100.00
65758;BME280;52495;52.208;5.158;2023-03-23T05:25:36;99991.53;;;11.20;100.00
65758;BME280;52495;52.208;5.158;2023-03-23T05:28:15;100003.50;;;11.23;100.00
65758;BME280;52495;52.208;5.158;2023-03-23T05:30:53;100011.28;;;11.23;100.00
65758;BME280;52495;52.208;5.158;2023-03-23T05:33:22;100021.63;;;11.21;100.00
65758;BME280;52495;52.208;5.158;2023-03-23T05:35:54;100014.78;;;11.20;100.00
65758;BME280;52495;52.208;5.158;2023-03-23T05:38:29;100014.03;;;11.17;100.00
65758;BME280;52495;52.208;5.158;2023-03-23T05:40:59;100023.84;;;11.07;100.00
65758;BME280;52495;52.208;5.158;2023-03-23T05:43:32;100024.06;;;11.01;100.00
65758;BME280;52495;52.208;5.158;2023-03-23T05:46:20;100025.97;;;10.94;100.00
65758;BME280;52495;52.208;5.158;2023-03-23T05:48:48;100038.13;;;10.90;100.00
65758;BME280;52495;52.208;5.158;2023-03-23T05:51:18;100033.91;;;10.88;100.00
65758;BME280;52495;52.208;5.158;2023-03-23T05:53:45;100043.34;;;10.89;100.00
65758;BME280;52495;52.208;5.158;2023-03-23T05:56:16;100033.13;;;10.86;100.00
65758;BME280;52495;52.208;5.158;2023-03-23T05:58:55;100034.00;;;10.85;100.00
65758;BME280;52495;52.208;5.158;2023-03-23T06:01:22;100028.78;;;10.86;100.00
65758;BME280;52495;52.208;5.158;2023-03-23T06:03:49;100026.19;;;10.86;100.00
65758;BME280;52495;52.208;5.158;2023-03-23T06:06:25;100033.94;;;10.86;100.00
65758;BME280;52495;52.208;5.158;2023-03-23T06:09:03;100037.41;;;10.87;100.00
65758;BME280;52495;52.208;5.158;2023-03-23T06:11:46;100045.13;;;10.87;100.00
65758;BME280;52495;52.208;5.158;2023-03-23T06:14:27;100059.84;;;10.85;100.00
65758;BME280;52495;52.208;5.158;2023-03-23T06:16:54;100040.06;;;10.84;100.00
65758;BME280;52495;52.208;5.158;2023-03-23T06:19:21;100051.19;;;10.86;100.00
65758;BME280;52495;52.208;5.158;2023-03-23T06:21:57;100051.13;;;10.87;100.00
65758;BME280;52495;52.208;5.158;2023-03-23T06:24:45;100056.19;;;10.92;100.00
65758;BME280;52495;52.208;5.158;2023-03-23T06:27:17;100058.75;;;10.92;100.00
65758;BME280;52495;52.208;5.158;2023-03-23T06:29:45;100051.03;;;10.90;100.00
65758;BME280;52495;52.208;5.158;2023-03-23T06:32:13;100060.53;;;10.90;100.00
65758;BME280;52495;52.208;5.158;2023-03-23T06:34:44;100068.22;;;10.93;100.00
65758;BME280;52495;52.208;5.158;2023-03-23T06:37:35;100070.72;;;10.95;100.00
65758;BME280;52495;52.208;5.158;2023-03-23T06:40:37;100078.41;;;10.96;100.00
65758;BME280;52495;52.208;5.158;2023-03-23T06:43:06;100080.31;;;10.91;100.00
65758;BME280;52495;52.208;5.158;2023-03-23T06:45:50;100080.31;;;10.91;100.00
65758;BME280;52495;52.208;5.158;2023-03-23T06:48:35;100092.34;;;10.92;100.00
65758;BME280;52495;52.208;5.158;2023-03-23T06:51:04;100105.19;;;10.93;100.00
65758;BME280;52495;52.208;5.158;2023-03-23T06:53:31;100090.53;;;10.94;100.00
65758;BME280;52495;52.208;5.158;2023-03-23T06:55:59;100089.69;;;10.93;100.00
65758;BME280;52495;52.208;5.158;2023-03-23T06:58:28;100084.44;;;10.97;100.00
65758;BME280;52495;52.208;5.158;2023-03-23T07:00:55;100095.50;;;11.00;100.00
65758;BME280;52495;52.208;5.158;2023-03-23T07:03:29;100090.41;;;10.99;100.00
65758;BME280;52495;52.208;5.158;2023-03-23T07:05:57;100098.97;;;11.01;100.00
65758;BME280;52495;52.208;5.158;2023-03-23T07:08:27;100090.25;;;11.03;100.00
65758;BME280;52495;52.208;5.158;2023-03-23T07:10:55;100094.72;;;10.98;100.00
65758;BME280;52495;52.208;5.158;2023-03-23T07:13:27;100090.25;;;11.03;100.00
65758;BME280;52495;52.208;5.158;2023-03-23T07:15:58;100085.00;;;11.06;100.00
65758;BME280;52495;52.208;5.158;2023-03-23T07:18:26;100083.97;;;11.11;100.00
65758;BME280;52495;52.208;5.158;2023-03-23T07:20:56;100091.63;;;11.15;100.00
65758;BME280;52495;52.208;5.158;2023-03-23T07:23:29;100088.06;;;11.18;100.00
65758;BME280;52495;52.208;5.158;2023-03-23T07:26:19;100095.66;;;11.24;100.00
65758;BME280;52495;52.208;5.158;2023-03-23T07:28:51;100103.41;;;11.24;100.00
65758;BME280;52495;52.208;5.158;2023-03-23T07:31:36;100105.09;;;11.25;100.00
65758;BME280;52495;52.208;5.158;2023-03-23T07:34:03;100100.00;;;11.22;100.00
65758;BME280;52495;52.208;5.158;2023-03-23T07:36:42;100113.63;;;11.27;100.00
65758;BME280;52495;52.208;5.158;2023-03-23T07:39:10;100113.63;;;11.27;100.00
65758;BME280;52495;52.208;5.158;2023-03-23T07:41:38;100111.19;;;11.22;100.00
65758;BME280;52495;52.208;5.158;2023-03-23T07:44:15;100127.38;;;11.28;100.00
65758;BME280;52495;52.208;5.158;2023-03-23T07:46:43;100115.31;;;11.28;100.00
65758;BME280;52495;52.208;5.158;2023-03-23T07:49:14;100113.66;;;11.26;100.00
65758;BME280;52495;52.208;5.158;2023-03-23T07:51:49;100120.44;;;11.30;100.00
65758;BME280;52495;52.208;5.158;2023-03-23T07:54:16;100122.06;;;11.32;99.89
65758;BME280;52495;52.208;5.158;2023-03-23T07:56:44;100117.78;;;11.31;99.89
65758;BME280;52495;52.208;5.158;2023-03-23T07:59:16;100123.56;;;11.39;99.43
65758;BME280;52495;52.208;5.158;2023-03-23T08:01:43;100120.94;;;11.41;98.91
65758;BME280;52495;52.208;5.158;2023-03-23T08:04:33;100125.19;;;11.44;99.16
65758;BME280;52495;52.208;5.158;2023-03-23T08:07:16;100126.09;;;11.41;98.69
65758;BME280;52495;52.208;5.158;2023-03-23T08:10:03;100138.13;;;11.42;98.96
65758;BME280;52495;52.208;5.158;2023-03-23T08:12:51;100132.78;;;11.48;99.18
65758;BME280;52495;52.208;5.158;2023-03-23T08:15:43;100141.16;;;11.55;99.08
65758;BME280;52495;52.208;5.158;2023-03-23T08:18:33;100131.41;;;11.63;99.27
65758;BME280;52495;52.208;5.158;2023-03-23T08:21:21;100139.94;;;11.67;99.23
65758;BME280;52495;52.208;5.158;2023-03-23T08:24:08;100136.31;;;11.71;98.55
65758;BME280;52495;52.208;5.158;2023-03-23T08:26:54;100134.41;;;11.78;98.00
65758;BME280;52495;52.208;5.158;2023-03-23T08:29:56;100126.75;;;11.75;97.74
65758;BME280;52495;52.208;5.158;2023-03-23T08:32:53;100136.31;;;11.71;96.26
65758;BME280;52495;52.208;5.158;2023-03-23T08:35:33;100142.50;;;11.67;96.26
65758;BME280;52495;52.208;5.158;2023-03-23T08:38:19;100144.25;;;11.66;96.40
65758;BME280;52495;52.208;5.158;2023-03-23T08:41:18;100150.28;;;11.67;96.79
65758;BME280;52495;52.208;5.158;2023-03-23T08:43:59;100151.72;;;11.76;96.86
65758;BME280;52495;52.208;5.158;2023-03-23T08:46:48;100151.22;;;11.90;96.97
65758;BME280;52495;52.208;5.158;2023-03-23T08:49:34;100155.13;;;12.03;96.62
65758;BME280;52495;52.208;5.158;2023-03-23T08:52:13;100147.22;;;12.08;96.16
65758;BME280;52495;52.208;5.158;2023-03-23T08:55:11;100157.31;;;12.14;94.93
65758;BME280;52495;52.208;5.158;2023-03-23T08:57:58;100160.50;;;12.22;94.52
65758;BME280;52495;52.208;5.158;2023-03-23T09:00:40;100164.69;;;12.26;93.61
65758;BME280;52495;52.208;5.158;2023-03-23T09:03:17;100162.09;;;12.26;93.08
65758;BME280;52495;52.208;5.158;2023-03-23T09:06:03;100155.22;;;12.25;92.27
65758;BME280;52495;52.208;5.158;2023-03-23T09:08:44;100163.56;;;12.34;92.78
65758;BME280;52495;52.208;5.158;2023-03-23T09:11:11;100176.28;;;12.40;91.25
65758;BME280;52495;52.208;5.158;2023-03-23T09:13:39;100171.28;;;12.59;91.35
65758;BME280;52495;52.208;5.158;2023-03-23T09:16:08;100173.66;;;12.65;89.41
65758;BME280;52495;52.208;5.158;2023-03-23T09:18:36;100161.25;;;12.73;87.96
65758;BME280;52495;52.208;5.158;2023-03-23T09:21:04;100167.28;;;12.74;86.86
65758;BME280;52495;52.208;5.158;2023-03-23T09:23:31;100155.78;;;12.81;86.78
65758;BME280;52495;52.208;5.158;2023-03-23T09:26:00;100164.13;;;12.89;86.01
65758;BME280;52495;52.208;5.158;2023-03-23T09:28:27;100165.44;;;13.00;84.57
65758;BME280;52495;52.208;5.158;2023-03-23T09:30:56;100164.72;;;12.96;83.10
65758;BME280;52495;52.208;5.158;2023-03-23T09:33:23;100176.72;;;12.99;83.93
65758;BME280;52495;52.208;5.158;2023-03-23T09:35:51;100176.56;;;13.03;83.04
65758;BME280;52495;52.208;5.158;2023-03-23T09:38:20;100174.00;;;13.02;81.47
65758;BME280;52495;52.208;5.158;2023-03-23T09:40:48;100172.28;;;13.02;81.57
65758;BME280;52495;52.208;5.158;2023-03-23T09:43:29;100185.06;;;13.07;80.78
65758;BME280;52495;52.208;5.158;2023-03-23T09:46:01;100185.28;;;13.01;78.62
65758;BME280;52495;52.208;5.158;2023-03-23T09:48:36;100182.75;;;12.99;78.31
65758;BME280;52495;52.208;5.158;2023-03-23T09:51:11;100178.66;;;12.94;78.35
65758;BME280;52495;52.208;5.158;2023-03-23T09:53:45;100188.06;;;12.96;78.37
65758;BME280;52495;52.208;5.158;2023-03-23T09:56:15;100193.00;;;13.02;79.20
65758;BME280;52495;52.208;5.158;2023-03-23T09:58:47;100197.34;;;13.02;77.17
65758;BME280;52495;52.208;5.158;2023-03-23T10:01:20;100201.69;;;13.01;77.92
65758;BME280;52495;52.208;5.158;2023-03-23T10:03:55;100193.84;;;13.03;78.33
65758;BME280;52495;52.208;5.158;2023-03-23T10:06:24;100205.78;;;13.07;78.43
65758;BME280;52495;52.208;5.158;2023-03-23T10:08:55;100215.25;;;13.08;77.48
65758;BME280;52495;52.208;5.158;2023-03-23T10:11:28;100206.09;;;13.21;77.72
65758;BME280;52495;52.208;5.158;2023-03-23T10:14:10;100208.03;;;13.16;77.16
65758;BME280;52495;52.208;5.158;2023-03-23T10:16:47;100214.91;;;13.17;77.32
65758;BME280;52495;52.208;5.158;2023-03-23T10:19:25;100221.53;;;13.25;78.54
65758;BME280;52495;52.208;5.158;2023-03-23T10:21:57;100218.06;;;13.26;78.51
65758;BME280;52495;52.208;5.158;2023-03-23T10:24:34;100217.88;;;13.30;78.68
65758;BME280;52495;52.208;5.158;2023-03-23T10:27:07;100222.94;;;13.33;79.01
65758;BME280;52495;52.208;5.158;2023-03-23T10:29:42;100225.97;;;13.45;77.68
65758;BME280;52495;52.208;5.158;2023-03-23T10:32:12;100217.59;;;13.60;77.12
65758;BME280;52495;52.208;5.158;2023-03-23T10:34:43;100225.91;;;13.69;77.18
65758;BME280;52495;52.208;5.158;2023-03-23T10:37:13;100218.97;;;13.69;74.77
65758;BME280;52495;52.208;5.158;2023-03-23T10:39:48;100218.63;;;13.78;73.87
65758;BME280;52495;52.208;5.158;2023-03-23T10:42:25;100217.63;;;13.81;72.61
65758;BME280;52495;52.208;5.158;2023-03-23T10:44:53;100223.69;;;13.81;73.70
65758;BME280;52495;52.208;5.158;2023-03-23T10:47:22;100229.59;;;13.85;73.93
65758;BME280;52495;52.208;5.158;2023-03-23T10:49:50;100232.41;;;13.79;72.91
65758;BME280;52495;52.208;5.158;2023-03-23T10:52:27;100226.44;;;13.77;71.80
65758;BME280;52495;52.208;5.158;2023-03-23T10:55:02;100226.78;;;13.90;72.18
65758;BME280;52495;52.208;5.158;2023-03-23T10:57:32;100235.16;;;13.96;70.53
65758;BME280;52495;52.208;5.158;2023-03-23T11:00:01;100234.94;;;14.03;69.94
65758;BME280;52495;52.208;5.158;2023-03-23T11:02:35;100240.25;;;14.00;70.61
65758;BME280;52495;52.208;5.158;2023-03-23T11:05:06;100238.28;;;13.84;67.85
65758;BME280;52495;52.208;5.158;2023-03-23T11:07:35;100238.91;;;13.69;68.39
65758;BME280;52495;52.208;5.158;2023-03-23T11:10:16;100246.44;;;13.53;69.36
65758;BME280;52495;52.208;5.158;2023-03-23T11:12:44;100246.06;;;13.40;71.10
65758;BME280;52495;52.208;5.158;2023-03-23T11:15:25;100243.56;;;13.36;72.54
65758;BME280;52495;52.208;5.158;2023-03-23T11:18:00;100237.53;;;13.36;72.61
65758;BME280;52495;52.208;5.158;2023-03-23T11:20:32;100236.53;;;13.40;72.59
65758;BME280;52495;52.208;5.158;2023-03-23T11:23:09;100243.56;;;13.36;72.57
65758;BME280;52495;52.208;5.158;2023-03-23T11:25:53;100242.09;;;13.29;71.85
65758;BME280;52495;52.208;5.158;2023-03-23T11:28:27;100234.28;;;13.31;71.89
65758;BME280;52495;52.208;5.158;2023-03-23T11:30:55;100237.00;;;13.28;71.49
65758;BME280;52495;52.208;5.158;2023-03-23T11:33:23;100242.34;;;13.23;71.90
65758;BME280;52495;52.208;5.158;2023-03-23T11:35:52;100241.19;;;13.30;71.39
65758;BME280;52495;52.208;5.158;2023-03-23T11:38:22;100255.03;;;13.31;71.58
65758;BME280;52495;52.208;5.158;2023-03-23T11:40:54;100243.69;;;13.33;71.19
65758;BME280;52495;52.208;5.158;2023-03-23T11:43:22;100244.09;;;13.46;71.24
65758;BME280;52495;52.208;5.158;2023-03-23T11:45:57;100241.72;;;13.62;70.66
65758;BME280;52495;52.208;5.158;2023-03-23T11:48:30;100234.81;;;13.63;69.13
65758;BME280;52495;52.208;5.158;2023-03-23T11:51:02;100243.06;;;13.73;70.09
65758;BME280;52495;52.208;5.158;2023-03-23T11:53:37;100234.91;;;13.82;70.05
65758;BME280;52495;52.208;5.158;2023-03-23T11:56:14;100236.78;;;13.78;69.30
65758;BME280;52495;52.208;5.158;2023-03-23T11:58:43;100225.22;;;13.86;68.07
65758;BME280;52495;52.208;5.158;2023-03-23T12:01:17;100223.09;;;13.95;68.32
65758;BME280;52495;52.208;5.158;2023-03-23T12:03:58;100224.88;;;14.16;65.97
65758;BME280;52495;52.208;5.158;2023-03-23T12:06:35;100222.59;;;14.29;64.71
65758;BME280;52495;52.208;5.158;2023-03-23T12:09:20;100229.13;;;14.37;64.04
65758;BME280;52495;52.208;5.158;2023-03-23T12:12:06;100233.81;;;14.50;63.38
65758;BME280;52495;52.208;5.158;2023-03-23T12:14:38;100240.28;;;14.60;64.55
65758;BME280;52495;52.208;5.158;2023-03-23T12:17:17;100241.84;;;14.64;64.76
65758;BME280;52495;52.208;5.158;2023-03-23T12:19:55;100241.84;;;14.64;65.26
65758;BME280;52495;52.208;5.158;2023-03-23T12:22:34;100231.59;;;14.61;66.63
65758;BME280;52495;52.208;5.158;2023-03-23T12:25:16;100220.81;;;14.70;67.12
65758;BME280;52495;52.208;5.158;2023-03-23T12:27:54;100227.78;;;14.70;66.16
65758;BME280;52495;52.208;5.158;2023-03-23T12:30:31;100226.78;;;14.72;65.76
65758;BME280;52495;52.208;5.158;2023-03-23T12:33:13;100226.66;;;14.76;64.21
65758;BME280;52495;52.208;5.158;2023-03-23T12:35:51;100231.03;;;14.75;62.80
65758;BME280;52495;52.208;5.158;2023-03-23T12:38:35;100228.00;;;14.84;64.04
65758;BME280;52495;52.208;5.158;2023-03-23T12:41:12;100217.94;;;14.96;63.54
65758;BME280;52495;52.208;5.158;2023-03-23T12:43:48;100210.22;;;14.94;62.44
65758;BME280;52495;52.208;5.158;2023-03-23T12:46:30;100207.56;;;14.96;62.04
65758;BME280;52495;52.208;5.158;2023-03-23T12:49:00;100212.75;;;14.77;62.43
65758;BME280;52495;52.208;5.158;2023-03-23T12:51:33;100225.75;;;14.77;63.73
65758;BME280;52495;52.208;5.158;2023-03-23T12:54:04;100219.06;;;14.71;63.78
65758;BME280;52495;52.208;5.158;2023-03-23T12:56:34;100212.97;;;14.72;64.32
65758;BME280;52495;52.208;5.158;2023-03-23T12:59:11;100207.41;;;14.80;64.60
65758;BME280;52495;52.208;5.158;2023-03-23T13:01:42;100196.47;;;14.73;63.58
65758;BME280;52495;52.208;5.158;2023-03-23T13:04:13;100210.53;;;14.67;64.23
65758;BME280;52495;52.208;5.158;2023-03-23T13:06:43;100190.94;;;14.60;64.73
65758;BME280;52495;52.208;5.158;2023-03-23T13:09:15;100214.44;;;14.78;65.43
65758;BME280;52495;52.208;5.158;2023-03-23T13:11:44;100225.53;;;14.81;64.63
65758;BME280;52495;52.208;5.158;2023-03-23T13:14:27;100217.34;;;14.91;64.33
65758;BME280;52495;52.208;5.158;2023-03-23T13:17:05;100230.25;;;14.92;65.00
65758;BME280;52495;52.208;5.158;2023-03-23T13:19:40;100240.09;;;14.85;65.07
65758;BME280;52495;52.208;5.158;2023-03-23T13:22:14;100234.31;;;14.79;64.60
65758;BME280;52495;52.208;5.158;2023-03-23T13:24:54;100234.53;;;14.93;64.84
65758;BME280;52495;52.208;5.158;2023-03-23T13:27:23;100234.41;;;14.96;64.16
65758;BME280;52495;52.208;5.158;2023-03-23T13:29:55;100226.25;;;15.04;63.93
65758;BME280;52495;52.208;5.158;2023-03-23T13:32:36;100219.09;;;15.09;63.62